sensor_id;sensor_type;location;lat;lon;timestamp;temperature;humidity
18658;DHT22;9458;50.942;5.074;2024-01-30T00:01:18;8.70;99.90
18658;DHT22;9458;50.942;5.074;2024-01-30T00:03:45;8.80;99.90
18658;DHT22;9458;50.942;5.074;2024-01-30T00:06:12;8.40;99.90
18658;DHT22;9458;50.942;5.074;2024-01-30T00:08:41;8.60;99.90
18658;DHT22;9458;50.942;5.074;2024-01-30T00:11:08;8.60;99.90
18658;DHT22;9458;50.942;5.074;2024-01-30T00:13:36;8.60;99.90
18658;DHT22;9458;50.942;5.074;2024-01-30T00:16:03;8.60;99.90
18658;DHT22;9458;50.942;5.074;2024-01-30T00:18:38;8.60;99.90
18658;DHT22;9458;50.942;5.074;2024-01-30T00:21:05;8.70;99.90
18658;DHT22;9458;50.942;5.074;2024-01-30T00:23:33;8.70;99.90
18658;DHT22;9458;50.942;5.074;2024-01-30T00:26:04;8.70;99.90
18658;DHT22;9458;50.942;5.074;2024-01-30T00:28:32;8.70;99.90
18658;DHT22;9458;50.942;5.074;2024-01-30T00:30:59;8.70;99.90
18658;DHT22;9458;50.942;5.074;2024-01-30T00:33:26;8.70;99.90
18658;DHT22;9458;50.942;5.074;2024-01-30T00:35:54;8.70;99.90
18658;DHT22;9458;50.942;5.074;2024-01-30T00:38:22;8.70;99.90
18658;DHT22;9458;50.942;5.074;2024-01-30T00:40:53;8.70;99.90
18658;DHT22;9458;50.942;5.074;2024-01-30T00:43:22;8.70;99.90
18658;DHT22;9458;50.942;5.074;2024-01-30T00:45:50;8.70;99.90
18658;DHT22;9458;50.942;5.074;2024-01-30T00:48:18;8.70;99.90
18658;DHT22;9458;50.942;5.074;2024-01-30T00:50:45;8.70;99.90
18658;DHT22;9458;50.942;5.074;2024-01-30T00:53:13;8.60;99.90
18658;DHT22;9458;50.942;5.074;2024-01-30T00:55:40;8.60;99.90
18658;DHT22;9458;50.942;5.074;2024-01-30T00:58:09;8.70;99.90
18658;DHT22;9458;50.942;5.074;2024-01-30T01:00:38;8.60;99.90
18658;DHT22;9458;50.942;5.074;2024-01-30T01:03:08;8.70;99.90
18658;DHT22;9458;50.942;5.074;2024-01-30T01:05:35;8.70;99.90
18658;DHT22;9458;50.942;5.074;2024-01-30T01:08:02;8.70;99.90
18658;DHT22;9458;50.942;5.074;2024-01-30T01:10:30;8.70;99.90
18658;DHT22;9458;50.942;5.074;2024-01-30T01:12:58;8.70;99.90
18658;DHT22;9458;50.942;5.074;2024-01-30T01:15:25;8.70;99.90
18658;DHT22;9458;50.942;5.074;2024-01-30T01:17:55;8.60;99.90
18658;DHT22;9458;50.942;5.074;2024-01-30T01:20:23;8.60;99.90
18658;DHT22;9458;50.942;5.074;2024-01-30T01:22:52;8.60;99.90
18658;DHT22;9458;50.942;5.074;2024-01-30T01:25:19;8.50;99.90
18658;DHT22;9458;50.942;5.074;2024-01-30T01:27:47;8.40;99.90
18658;DHT22;9458;50.942;5.074;2024-01-30T01:30:17;8.50;99.90
18658;DHT22;9458;50.942;5.074;2024-01-30T01:32:47;8.60;99.90
18658;DHT22;9458;50.942;5.074;2024-01-30T01:35:22;8.50;99.90
18658;DHT22;9458;50.942;5.074;2024-01-30T01:37:50;8.50;99.90
18658;DHT22;9458;50.942;5.074;2024-01-30T01:40:21;8.50;99.90
18658;DHT22;9458;50.942;5.074;2024-01-30T01:42:49;8.50;99.90
18658;DHT22;9458;50.942;5.074;2024-01-30T01:45:16;8.40;99.90
18658;DHT22;9458;50.942;5.074;2024-01-30T01:47:43;8.40;99.90
18658;DHT22;9458;50.942;5.074;2024-01-30T01:50:11;8.40;99.90
18658;DHT22;9458;50.942;5.074;2024-01-30T01:52:40;8.40;99.90
18658;DHT22;9458;50.942;5.074;2024-01-30T01:55:07;8.50;99.90
18658;DHT22;9458;50.942;5.074;2024-01-30T01:57:34;8.50;99.90
18658;DHT22;9458;50.942;5.074;2024-01-30T02:00:01;8.50;99.90
18658;DHT22;9458;50.942;5.074;2024-01-30T02:02:30;8.50;99.90
18658;DHT22;9458;50.942;5.074;2024-01-30T02:04:57;8.60;99.90
18658;DHT22;9458;50.942;5.074;2024-01-30T02:07:24;8.60;99.90
18658;DHT22;9458;50.942;5.074;2024-01-30T02:09:53;8.60;99.90
18658;DHT22;9458;50.942;5.074;2024-01-30T02:12:20;8.60;99.90
18658;DHT22;9458;50.942;5.074;2024-01-30T02:14:47;8.60;99.90
18658;DHT22;9458;50.942;5.074;2024-01-30T02:17:15;8.60;99.90
18658;DHT22;9458;50.942;5.074;2024-01-30T02:19:42;8.60;99.90
18658;DHT22;9458;50.942;5.074;2024-01-30T02:22:11;8.70;99.90
18658;DHT22;9458;50.942;5.074;2024-01-30T02:24:38;8.60;99.90
18658;DHT22;9458;50.942;5.074;2024-01-30T02:27:05;8.60;99.90
18658;DHT22;9458;50.942;5.074;2024-01-30T02:29:31;8.60;99.90
18658;DHT22;9458;50.942;5.074;2024-01-30T02:31:58;8.60;99.90
18658;DHT22;9458;50.942;5.074;2024-01-30T02:34:25;8.50;99.90
18658;DHT22;9458;50.942;5.074;2024-01-30T02:36:52;8.50;99.90
18658;DHT22;9458;50.942;5.074;2024-01-30T02:39:20;8.40;99.90
18658;DHT22;9458;50.942;5.074;2024-01-30T02:41:47;8.30;99.90
18658;DHT22;9458;50.942;5.074;2024-01-30T02:44:14;8.30;99.90
18658;DHT22;9458;50.942;5.074;2024-01-30T02:46:41;8.30;99.90
18658;DHT22;9458;50.942;5.074;2024-01-30T02:49:08;8.30;99.90
18658;DHT22;9458;50.942;5.074;2024-01-30T02:51:35;8.40;99.90
18658;DHT22;9458;50.942;5.074;2024-01-30T02:54:02;8.40;99.90
18658;DHT22;9458;50.942;5.074;2024-01-30T02:56:30;8.50;99.90
18658;DHT22;9458;50.942;5.074;2024-01-30T02:58:57;8.40;99.90
18658;DHT22;9458;50.942;5.074;2024-01-30T03:01:24;8.50;99.90
18658;DHT22;9458;50.942;5.074;2024-01-30T03:03:51;8.40;99.90
18658;DHT22;9458;50.942;5.074;2024-01-30T03:06:17;8.40;99.90
18658;DHT22;9458;50.942;5.074;2024-01-30T03:08:45;8.50;99.90
18658;DHT22;9458;50.942;5.074;2024-01-30T03:11:13;8.40;99.90
18658;DHT22;9458;50.942;5.074;2024-01-30T03:13:41;8.40;99.90
18658;DHT22;9458;50.942;5.074;2024-01-30T03:16:08;8.40;99.90
18658;DHT22;9458;50.942;5.074;2024-01-30T03:18:35;8.50;99.90
18658;DHT22;9458;50.942;5.074;2024-01-30T03:21:02;8.60;99.90
18658;DHT22;9458;50.942;5.074;2024-01-30T03:23:29;8.60;99.90
18658;DHT22;9458;50.942;5.074;2024-01-30T03:25:57;8.70;99.90
18658;DHT22;9458;50.942;5.074;2024-01-30T03:28:24;8.70;99.90
18658;DHT22;9458;50.942;5.074;2024-01-30T03:30:53;8.70;99.90
18658;DHT22;9458;50.942;5.074;2024-01-30T03:33:19;8.70;99.90
18658;DHT22;9458;50.942;5.074;2024-01-30T03:35:46;8.80;99.90
18658;DHT22;9458;50.942;5.074;2024-01-30T03:38:13;8.80;99.90
18658;DHT22;9458;50.942;5.074;2024-01-30T03:40:40;8.80;99.90
18658;DHT22;9458;50.942;5.074;2024-01-30T03:43:07;8.70;99.90
18658;DHT22;9458;50.942;5.074;2024-01-30T03:45:34;8.60;99.90
18658;DHT22;9458;50.942;5.074;2024-01-30T03:48:02;8.60;99.90
18658;DHT22;9458;50.942;5.074;2024-01-30T03:50:29;8.70;99.90
18658;DHT22;9458;50.942;5.074;2024-01-30T03:52:56;8.70;99.90
18658;DHT22;9458;50.942;5.074;2024-01-30T03:55:23;8.70;99.90
18658;DHT22;9458;50.942;5.074;2024-01-30T03:57:50;8.80;99.90
18658;DHT22;9458;50.942;5.074;2024-01-30T04:00:17;8.80;99.90
18658;DHT22;9458;50.942;5.074;2024-01-30T04:02:44;8.80;99.90
18658;DHT22;9458;50.942;5.074;2024-01-30T04:05:13;8.80;99.90
18658;DHT22;9458;50.942;5.074;2024-01-30T04:07:40;8.80;99.90
18658;DHT22;9458;50.942;5.074;2024-01-30T04:10:07;8.80;99.90
18658;DHT22;9458;50.942;5.074;2024-01-30T04:12:35;8.70;99.90
18658;DHT22;9458;50.942;5.074;2024-01-30T04:15:02;8.60;99.90
18658;DHT22;9458;50.942;5.074;2024-01-30T04:17:29;8.60;99.90
18658;DHT22;9458;50.942;5.074;2024-01-30T04:19:56;8.60;99.90
18658;DHT22;9458;50.942;5.074;2024-01-30T04:22:24;8.70;99.90
18658;DHT22;9458;50.942;5.074;2024-01-30T04:24:51;8.70;99.90
18658;DHT22;9458;50.942;5.074;2024-01-30T04:27:18;8.70;99.90
18658;DHT22;9458;50.942;5.074;2024-01-30T04:29:45;8.70;99.90
18658;DHT22;9458;50.942;5.074;2024-01-30T04:32:12;8.70;99.90
18658;DHT22;9458;50.942;5.074;2024-01-30T04:34:39;8.70;99.90
18658;DHT22;9458;50.942;5.074;2024-01-30T04:37:05;8.70;99.90
18658;DHT22;9458;50.942;5.074;2024-01-30T04:39:34;8.80;99.90
18658;DHT22;9458;50.942;5.074;2024-01-30T04:42:01;8.80;99.90
18658;DHT22;9458;50.942;5.074;2024-01-30T04:44:27;8.80;99.90
18658;DHT22;9458;50.942;5.074;2024-01-30T04:46:54;8.80;99.90
18658;DHT22;9458;50.942;5.074;2024-01-30T04:49:24;8.70;99.90
18658;DHT22;9458;50.942;5.074;2024-01-30T04:51:51;8.60;99.90
18658;DHT22;9458;50.942;5.074;2024-01-30T04:54:18;8.60;99.90
18658;DHT22;9458;50.942;5.074;2024-01-30T04:56:46;8.70;99.90
18658;DHT22;9458;50.942;5.074;2024-01-30T04:59:13;8.70;99.90
18658;DHT22;9458;50.942;5.074;2024-01-30T05:01:40;8.70;99.90
18658;DHT22;9458;50.942;5.074;2024-01-30T05:04:07;8.70;99.90
18658;DHT22;9458;50.942;5.074;2024-01-30T05:06:34;8.80;99.90
18658;DHT22;9458;50.942;5.074;2024-01-30T05:09:01;8.80;99.90
18658;DHT22;9458;50.942;5.074;2024-01-30T05:11:29;8.80;99.90
18658;DHT22;9458;50.942;5.074;2024-01-30T05:13:58;8.80;99.90
18658;DHT22;9458;50.942;5.074;2024-01-30T05:16:25;8.80;99.90
18658;DHT22;9458;50.942;5.074;2024-01-30T05:18:53;8.90;99.90
18658;DHT22;9458;50.942;5.074;2024-01-30T05:21:19;8.90;99.90
18658;DHT22;9458;50.942;5.074;2024-01-30T05:23:47;8.90;99.90
18658;DHT22;9458;50.942;5.074;2024-01-30T05:26:14;8.90;99.90
18658;DHT22;9458;50.942;5.074;2024-01-30T05:28:40;9.00;99.90
18658;DHT22;9458;50.942;5.074;2024-01-30T05:31:11;9.00;99.90
18658;DHT22;9458;50.942;5.074;2024-01-30T05:33:38;9.00;99.90
18658;DHT22;9458;50.942;5.074;2024-01-30T05:36:05;9.00;99.90
18658;DHT22;9458;50.942;5.074;2024-01-30T05:38:32;9.10;99.90
18658;DHT22;9458;50.942;5.074;2024-01-30T05:40:59;9.10;99.90
18658;DHT22;9458;50.942;5.074;2024-01-30T05:43:26;9.20;99.90
18658;DHT22;9458;50.942;5.074;2024-01-30T05:45:53;9.20;99.90
18658;DHT22;9458;50.942;5.074;2024-01-30T05:48:21;9.20;99.90
18658;DHT22;9458;50.942;5.074;2024-01-30T05:50:49;9.20;99.90
18658;DHT22;9458;50.942;5.074;2024-01-30T05:53:16;9.30;99.90
18658;DHT22;9458;50.942;5.074;2024-01-30T05:55:43;9.30;99.90
18658;DHT22;9458;50.942;5.074;2024-01-30T05:58:10;9.30;99.90
18658;DHT22;9458;50.942;5.074;2024-01-30T06:00:37;9.30;99.90
18658;DHT22;9458;50.942;5.074;2024-01-30T06:03:04;9.30;99.90
18658;DHT22;9458;50.942;5.074;2024-01-30T06:05:32;9.30;99.90
18658;DHT22;9458;50.942;5.074;2024-01-30T06:07:59;9.30;99.90
18658;DHT22;9458;50.942;5.074;2024-01-30T06:10:27;9.30;99.90
18658;DHT22;9458;50.942;5.074;2024-01-30T06:12:54;9.30;99.90
18658;DHT22;9458;50.942;5.074;2024-01-30T06:15:21;9.30;99.90
18658;DHT22;9458;50.942;5.074;2024-01-30T06:17:48;9.30;99.90
18658;DHT22;9458;50.942;5.074;2024-01-30T06:20:15;9.30;99.90
18658;DHT22;9458;50.942;5.074;2024-01-30T06:22:44;9.30;99.90
18658;DHT22;9458;50.942;5.074;2024-01-30T06:25:11;9.30;99.90
18658;DHT22;9458;50.942;5.074;2024-01-30T06:27:38;9.30;99.90
18658;DHT22;9458;50.942;5.074;2024-01-30T06:30:06;9.30;99.90
18658;DHT22;9458;50.942;5.074;2024-01-30T06:32:33;9.40;99.90
18658;DHT22;9458;50.942;5.074;2024-01-30T06:35:00;9.40;99.90
18658;DHT22;9458;50.942;5.074;2024-01-30T06:37:27;9.40;99.90
18658;DHT22;9458;50.942;5.074;2024-01-30T06:39:55;9.40;99.90
18658;DHT22;9458;50.942;5.074;2024-01-30T06:42:22;9.40;99.90
18658;DHT22;9458;50.942;5.074;2024-01-30T06:44:49;9.50;99.90
18658;DHT22;9458;50.942;5.074;2024-01-30T06:47:16;9.50;99.90
18658;DHT22;9458;50.942;5.074;2024-01-30T06:49:43;9.50;99.90
18658;DHT22;9458;50.942;5.074;2024-01-30T06:52:10;9.50;99.90
18658;DHT22;9458;50.942;5.074;2024-01-30T06:54:37;9.50;99.90
18658;DHT22;9458;50.942;5.074;2024-01-30T06:57:06;9.60;99.90
18658;DHT22;9458;50.942;5.074;2024-01-30T06:59:37;9.60;99.90
18658;DHT22;9458;50.942;5.074;2024-01-30T07:02:08;9.60;99.90
18658;DHT22;9458;50.942;5.074;2024-01-30T07:04:36;9.60;99.90
18658;DHT22;9458;50.942;5.074;2024-01-30T07:07:04;9.60;99.90
18658;DHT22;9458;50.942;5.074;2024-01-30T07:09:31;9.60;99.90
18658;DHT22;9458;50.942;5.074;2024-01-30T07:11:59;9.60;99.90
18658;DHT22;9458;50.942;5.074;2024-01-30T07:14:28;9.60;99.90
18658;DHT22;9458;50.942;5.074;2024-01-30T07:16:54;9.60;99.90
18658;DHT22;9458;50.942;5.074;2024-01-30T07:19:21;9.60;99.90
18658;DHT22;9458;50.942;5.074;2024-01-30T07:21:48;9.60;99.90
18658;DHT22;9458;50.942;5.074;2024-01-30T07:24:15;9.60;99.90
18658;DHT22;9458;50.942;5.074;2024-01-30T07:26:42;9.50;99.90
18658;DHT22;9458;50.942;5.074;2024-01-30T07:29:09;9.60;99.90
18658;DHT22;9458;50.942;5.074;2024-01-30T07:31:37;9.60;99.90
18658;DHT22;9458;50.942;5.074;2024-01-30T07:34:04;9.60;99.90
18658;DHT22;9458;50.942;5.074;2024-01-30T07:36:30;9.60;99.90
18658;DHT22;9458;50.942;5.074;2024-01-30T07:38:57;9.60;99.90
18658;DHT22;9458;50.942;5.074;2024-01-30T07:41:24;9.70;99.90
18658;DHT22;9458;50.942;5.074;2024-01-30T07:43:51;9.70;99.90
18658;DHT22;9458;50.942;5.074;2024-01-30T07:46:19;9.70;99.90
18658;DHT22;9458;50.942;5.074;2024-01-30T07:48:47;9.70;99.90
18658;DHT22;9458;50.942;5.074;2024-01-30T07:51:14;9.70;99.90
18658;DHT22;9458;50.942;5.074;2024-01-30T07:53:44;9.70;99.90
18658;DHT22;9458;50.942;5.074;2024-01-30T07:56:19;9.70;99.90
18658;DHT22;9458;50.942;5.074;2024-01-30T07:58:46;9.70;99.90
18658;DHT22;9458;50.942;5.074;2024-01-30T08:01:14;9.70;99.90
18658;DHT22;9458;50.942;5.074;2024-01-30T08:03:41;9.70;99.90
18658;DHT22;9458;50.942;5.074;2024-01-30T08:06:09;9.80;99.90
18658;DHT22;9458;50.942;5.074;2024-01-30T08:08:36;9.80;99.90
18658;DHT22;9458;50.942;5.074;2024-01-30T08:11:04;9.90;99.90
18658;DHT22;9458;50.942;5.074;2024-01-30T08:13:31;9.90;99.90
18658;DHT22;9458;50.942;5.074;2024-01-30T08:15:58;9.90;99.90
18658;DHT22;9458;50.942;5.074;2024-01-30T08:18:27;9.90;99.90
18658;DHT22;9458;50.942;5.074;2024-01-30T08:20:55;10.00;99.90
18658;DHT22;9458;50.942;5.074;2024-01-30T08:23:23;10.00;99.90
18658;DHT22;9458;50.942;5.074;2024-01-30T08:25:50;10.00;99.90
18658;DHT22;9458;50.942;5.074;2024-01-30T08:28:17;10.00;99.90
18658;DHT22;9458;50.942;5.074;2024-01-30T08:30:44;10.00;99.90
18658;DHT22;9458;50.942;5.074;2024-01-30T08:33:11;10.00;99.90
18658;DHT22;9458;50.942;5.074;2024-01-30T08:35:38;10.10;99.90
18658;DHT22;9458;50.942;5.074;2024-01-30T08:38:05;10.10;99.90
18658;DHT22;9458;50.942;5.074;2024-01-30T08:40:34;10.10;99.90
18658;DHT22;9458;50.942;5.074;2024-01-30T08:43:01;10.10;99.90
18658;DHT22;9458;50.942;5.074;2024-01-30T08:45:29;10.20;99.90
18658;DHT22;9458;50.942;5.074;2024-01-30T08:47:56;10.20;99.90
18658;DHT22;9458;50.942;5.074;2024-01-30T08:50:23;10.30;99.90
18658;DHT22;9458;50.942;5.074;2024-01-30T08:52:50;10.30;99.90
18658;DHT22;9458;50.942;5.074;2024-01-30T08:55:16;10.40;99.90
18658;DHT22;9458;50.942;5.074;2024-01-30T08:57:45;10.40;99.90
18658;DHT22;9458;50.942;5.074;2024-01-30T09:00:13;10.50;99.90
18658;DHT22;9458;50.942;5.074;2024-01-30T09:02:41;10.50;99.90
18658;DHT22;9458;50.942;5.074;2024-01-30T09:05:08;10.60;99.90
18658;DHT22;9458;50.942;5.074;2024-01-30T09:07:35;10.60;99.90
18658;DHT22;9458;50.942;5.074;2024-01-30T09:10:02;10.60;99.90
18658;DHT22;9458;50.942;5.074;2024-01-30T09:12:29;10.70;99.90
18658;DHT22;9458;50.942;5.074;2024-01-30T09:14:58;10.70;99.90
18658;DHT22;9458;50.942;5.074;2024-01-30T09:17:25;10.70;99.90
18658;DHT22;9458;50.942;5.074;2024-01-30T09:19:52;10.70;99.90
18658;DHT22;9458;50.942;5.074;2024-01-30T09:22:19;10.70;99.90
18658;DHT22;9458;50.942;5.074;2024-01-30T09:24:46;10.70;99.90
18658;DHT22;9458;50.942;5.074;2024-01-30T09:27:13;10.70;99.90
18658;DHT22;9458;50.942;5.074;2024-01-30T09:29:40;10.80;99.90
18658;DHT22;9458;50.942;5.074;2024-01-30T09:32:08;10.80;99.90
18658;DHT22;9458;50.942;5.074;2024-01-30T09:34:35;10.80;99.90
18658;DHT22;9458;50.942;5.074;2024-01-30T09:37:02;10.80;99.90
18658;DHT22;9458;50.942;5.074;2024-01-30T09:39:30;10.90;99.90
18658;DHT22;9458;50.942;5.074;2024-01-30T09:42:00;11.00;99.90
18658;DHT22;9458;50.942;5.074;2024-01-30T09:44:29;11.10;99.90
18658;DHT22;9458;50.942;5.074;2024-01-30T09:46:56;11.20;99.90
18658;DHT22;9458;50.942;5.074;2024-01-30T09:49:31;11.30;99.90
18658;DHT22;9458;50.942;5.074;2024-01-30T09:51:58;11.40;99.90
18658;DHT22;9458;50.942;5.074;2024-01-30T09:54:25;11.50;99.90
18658;DHT22;9458;50.942;5.074;2024-01-30T09:56:52;11.50;99.90
18658;DHT22;9458;50.942;5.074;2024-01-30T09:59:19;11.50;99.90
18658;DHT22;9458;50.942;5.074;2024-01-30T10:01:46;11.50;99.90
18658;DHT22;9458;50.942;5.074;2024-01-30T10:04:13;11.50;99.90
18658;DHT22;9458;50.942;5.074;2024-01-30T10:06:42;11.50;99.90
18658;DHT22;9458;50.942;5.074;2024-01-30T10:09:09;11.50;99.90
18658;DHT22;9458;50.942;5.074;2024-01-30T10:11:36;11.60;99.90
18658;DHT22;9458;50.942;5.074;2024-01-30T10:14:03;11.60;99.90
18658;DHT22;9458;50.942;5.074;2024-01-30T10:16:30;11.50;99.90
18658;DHT22;9458;50.942;5.074;2024-01-30T10:18:58;11.60;99.90
18658;DHT22;9458;50.942;5.074;2024-01-30T10:21:25;11.50;99.90
18658;DHT22;9458;50.942;5.074;2024-01-30T10:23:54;11.60;99.90
18658;DHT22;9458;50.942;5.074;2024-01-30T10:26:21;11.60;99.90
18658;DHT22;9458;50.942;5.074;2024-01-30T10:28:48;11.60;99.90
18658;DHT22;9458;50.942;5.074;2024-01-30T10:31:16;11.70;99.90
18658;DHT22;9458;50.942;5.074;2024-01-30T10:33:44;11.70;99.90
18658;DHT22;9458;50.942;5.074;2024-01-30T10:36:10;11.60;99.90
18658;DHT22;9458;50.942;5.074;2024-01-30T10:38:39;11.60;99.90
18658;DHT22;9458;50.942;5.074;2024-01-30T10:41:10;11.60;99.90
18658;DHT22;9458;50.942;5.074;2024-01-30T10:43:40;11.60;99.90
18658;DHT22;9458;50.942;5.074;2024-01-30T10:46:10;11.60;99.90
18658;DHT22;9458;50.942;5.074;2024-01-30T10:48:40;11.60;99.90
18658;DHT22;9458;50.942;5.074;2024-01-30T10:51:10;11.60;99.90
18658;DHT22;9458;50.942;5.074;2024-01-30T10:53:38;11.50;99.90
18658;DHT22;9458;50.942;5.074;2024-01-30T10:56:06;11.50;99.90
18658;DHT22;9458;50.942;5.074;2024-01-30T10:58:34;11.50;99.90
18658;DHT22;9458;50.942;5.074;2024-01-30T11:01:01;11.50;99.90
18658;DHT22;9458;50.942;5.074;2024-01-30T11:03:29;11.50;99.90
18658;DHT22;9458;50.942;5.074;2024-01-30T11:05:59;11.50;99.90
18658;DHT22;9458;50.942;5.074;2024-01-30T11:08:27;11.50;99.90
18658;DHT22;9458;50.942;5.074;2024-01-30T11:10:55;11.60;99.90
18658;DHT22;9458;50.942;5.074;2024-01-30T11:13:26;11.60;99.90
18658;DHT22;9458;50.942;5.074;2024-01-30T11:15:55;11.60;99.90
18658;DHT22;9458;50.942;5.074;2024-01-30T11:18:25;11.60;99.90
18658;DHT22;9458;50.942;5.074;2024-01-30T11:20:52;11.70;99.90
18658;DHT22;9458;50.942;5.074;2024-01-30T11:23:21;11.70;99.90
18658;DHT22;9458;50.942;5.074;2024-01-30T11:25:49;11.80;99.90
18658;DHT22;9458;50.942;5.074;2024-01-30T11:28:15;11.90;99.90
18658;DHT22;9458;50.942;5.074;2024-01-30T11:30:42;12.00;99.90
18658;DHT22;9458;50.942;5.074;2024-01-30T11:33:12;12.00;99.90
18658;DHT22;9458;50.942;5.074;2024-01-30T11:35:40;11.90;99.90
18658;DHT22;9458;50.942;5.074;2024-01-30T11:38:08;11.90;99.90
18658;DHT22;9458;50.942;5.074;2024-01-30T11:40:36;11.90;99.90
18658;DHT22;9458;50.942;5.074;2024-01-30T11:43:04;11.80;99.90
18658;DHT22;9458;50.942;5.074;2024-01-30T11:45:31;11.80;99.90
18658;DHT22;9458;50.942;5.074;2024-01-30T11:47:58;11.70;99.90
18658;DHT22;9458;50.942;5.074;2024-01-30T11:50:28;11.60;99.90
18658;DHT22;9458;50.942;5.074;2024-01-30T11:52:55;11.50;99.90
18658;DHT22;9458;50.942;5.074;2024-01-30T11:55:23;11.50;99.90
18658;DHT22;9458;50.942;5.074;2024-01-30T11:57:50;11.60;99.90
18658;DHT22;9458;50.942;5.074;2024-01-30T12:00:18;11.60;99.90
18658;DHT22;9458;50.942;5.074;2024-01-30T12:02:48;11.60;99.90
18658;DHT22;9458;50.942;5.074;2024-01-30T12:05:16;11.70;99.90
18658;DHT22;9458;50.942;5.074;2024-01-30T12:07:45;11.60;99.90
18658;DHT22;9458;50.942;5.074;2024-01-30T12:10:12;11.60;99.90
18658;DHT22;9458;50.942;5.074;2024-01-30T12:12:40;11.50;99.90
18658;DHT22;9458;50.942;5.074;2024-01-30T12:15:08;11.50;99.90
18658;DHT22;9458;50.942;5.074;2024-01-30T12:17:35;11.40;99.90
18658;DHT22;9458;50.942;5.074;2024-01-30T12:20:03;11.40;99.90
18658;DHT22;9458;50.942;5.074;2024-01-30T12:22:33;11.50;99.90
18658;DHT22;9458;50.942;5.074;2024-01-30T12:25:01;11.50;99.90
18658;DHT22;9458;50.942;5.074;2024-01-30T12:27:29;11.60;99.90
18658;DHT22;9458;50.942;5.074;2024-01-30T12:29:56;11.60;99.90
18658;DHT22;9458;50.942;5.074;2024-01-30T12:32:24;11.70;99.90
18658;DHT22;9458;50.942;5.074;2024-01-30T12:34:54;11.70;99.90
18658;DHT22;9458;50.942;5.074;2024-01-30T12:37:21;11.70;99.90
18658;DHT22;9458;50.942;5.074;2024-01-30T12:39:51;11.80;99.90
18658;DHT22;9458;50.942;5.074;2024-01-30T12:42:20;11.70;99.90
18658;DHT22;9458;50.942;5.074;2024-01-30T12:44:48;11.70;99.90
18658;DHT22;9458;50.942;5.074;2024-01-30T12:47:15;11.60;99.90
18658;DHT22;9458;50.942;5.074;2024-01-30T12:49:46;11.60;99.90
18658;DHT22;9458;50.942;5.074;2024-01-30T12:52:14;11.60;99.90
18658;DHT22;9458;50.942;5.074;2024-01-30T12:54:41;11.60;99.90
18658;DHT22;9458;50.942;5.074;2024-01-30T12:57:08;11.60;99.90
18658;DHT22;9458;50.942;5.074;2024-01-30T12:59:36;11.60;99.90
18658;DHT22;9458;50.942;5.074;2024-01-30T13:02:04;11.70;99.90
18658;DHT22;9458;50.942;5.074;2024-01-30T13:04:31;11.70;99.90
18658;DHT22;9458;50.942;5.074;2024-01-30T13:06:59;11.70;99.90
18658;DHT22;9458;50.942;5.074;2024-01-30T13:09:26;11.80;99.90
18658;DHT22;9458;50.942;5.074;2024-01-30T13:11:53;11.70;99.90
18658;DHT22;9458;50.942;5.074;2024-01-30T13:14:21;11.70;99.90
18658;DHT22;9458;50.942;5.074;2024-01-30T13:16:54;11.50;99.90
18658;DHT22;9458;50.942;5.074;2024-01-30T13:19:21;11.30;99.90
18658;DHT22;9458;50.942;5.074;2024-01-30T13:21:48;11.30;99.90
18658;DHT22;9458;50.942;5.074;2024-01-30T13:24:18;11.40;99.90
18658;DHT22;9458;50.942;5.074;2024-01-30T13:26:46;11.40;99.90
18658;DHT22;9458;50.942;5.074;2024-01-30T13:29:13;11.50;99.90
18658;DHT22;9458;50.942;5.074;2024-01-30T13:31:40;11.50;99.90
18658;DHT22;9458;50.942;5.074;2024-01-30T13:34:11;11.60;99.90
18658;DHT22;9458;50.942;5.074;2024-01-30T13:36:39;11.60;99.90
18658;DHT22;9458;50.942;5.074;2024-01-30T13:39:06;11.50;99.90
18658;DHT22;9458;50.942;5.074;2024-01-30T13:41:34;11.50;99.90
18658;DHT22;9458;50.942;5.074;2024-01-30T13:44:01;11.40;99.90
18658;DHT22;9458;50.942;5.074;2024-01-30T13:46:29;11.50;99.90
18658;DHT22;9458;50.942;5.074;2024-01-30T13:48:54;11.70;99.90
18658;DHT22;9458;50.942;5.074;2024-01-30T13:51:23;11.70;99.90
18658;DHT22;9458;50.942;5.074;2024-01-30T13:53:50;11.70;99.90
18658;DHT22;9458;50.942;5.074;2024-01-30T13:56:17;11.70;99.90
18658;DHT22;9458;50.942;5.074;2024-01-30T13:58:44;11.80;99.90
18658;DHT22;9458;50.942;5.074;2024-01-30T14:01:11;11.80;99.90
18658;DHT22;9458;50.942;5.074;2024-01-30T14:03:38;11.70;99.90
18658;DHT22;9458;50.942;5.074;2024-01-30T14:06:05;11.80;99.90
18658;DHT22;9458;50.942;5.074;2024-01-30T14:08:34;11.80;99.90
18658;DHT22;9458;50.942;5.074;2024-01-30T14:11:01;11.80;99.90
18658;DHT22;9458;50.942;5.074;2024-01-30T14:13:28;11.80;99.90
18658;DHT22;9458;50.942;5.074;2024-01-30T14:15:56;11.60;99.90
18658;DHT22;9458;50.942;5.074;2024-01-30T14:18:23;11.60;99.90
18658;DHT22;9458;50.942;5.074;2024-01-30T14:20:51;11.60;99.90
18658;DHT22;9458;50.942;5.074;2024-01-30T14:23:18;11.60;99.90
18658;DHT22;9458;50.942;5.074;2024-01-30T14:25:46;11.70;99.90
18658;DHT22;9458;50.942;5.074;2024-01-30T14:28:13;11.60;99.90
18658;DHT22;9458;50.942;5.074;2024-01-30T14:30:40;11.60;99.90
18658;DHT22;9458;50.942;5.074;2024-01-30T14:33:07;11.50;99.90
18658;DHT22;9458;50.942;5.074;2024-01-30T14:35:34;11.50;99.90
18658;DHT22;9458;50.942;5.074;2024-01-30T14:38:01;11.40;99.90
18658;DHT22;9458;50.942;5.074;2024-01-30T14:40:30;11.40;99.90
18658;DHT22;9458;50.942;5.074;2024-01-30T14:42:58;11.40;99.90
18658;DHT22;9458;50.942;5.074;2024-01-30T14:45:27;11.40;99.90
18658;DHT22;9458;50.942;5.074;2024-01-30T14:47:58;11.50;99.90
18658;DHT22;9458;50.942;5.074;2024-01-30T14:50:26;11.50;99.90
18658;DHT22;9458;50.942;5.074;2024-01-30T14:52:53;11.40;99.90
18658;DHT22;9458;50.942;5.074;2024-01-30T14:55:21;11.30;99.90
18658;DHT22;9458;50.942;5.074;2024-01-30T14:57:48;11.20;99.90
18658;DHT22;9458;50.942;5.074;2024-01-30T15:00:17;11.30;99.90
18658;DHT22;9458;50.942;5.074;2024-01-30T15:02:44;11.30;99.90
18658;DHT22;9458;50.942;5.074;2024-01-30T15:05:12;11.20;99.90
18658;DHT22;9458;50.942;5.074;2024-01-30T15:07:39;11.20;99.90
18658;DHT22;9458;50.942;5.074;2024-01-30T15:10:07;11.10;99.90
18658;DHT22;9458;50.942;5.074;2024-01-30T15:12:34;11.10;99.90
18658;DHT22;9458;50.942;5.074;2024-01-30T15:15:01;11.10;99.90
18658;DHT22;9458;50.942;5.074;2024-01-30T15:17:29;11.10;99.90
18658;DHT22;9458;50.942;5.074;2024-01-30T15:19:56;11.00;99.90
18658;DHT22;9458;50.942;5.074;2024-01-30T15:22:24;11.00;99.90
18658;DHT22;9458;50.942;5.074;2024-01-30T15:24:51;10.90;99.90
18658;DHT22;9458;50.942;5.074;2024-01-30T15:27:18;10.90;99.90
18658;DHT22;9458;50.942;5.074;2024-01-30T15:29:45;10.80;99.90
18658;DHT22;9458;50.942;5.074;2024-01-30T15:32:12;10.80;99.90
18658;DHT22;9458;50.942;5.074;2024-01-30T15:34:41;10.70;99.90
18658;DHT22;9458;50.942;5.074;2024-01-30T15:37:08;10.60;99.90
18658;DHT22;9458;50.942;5.074;2024-01-30T15:39:36;10.70;99.90
18658;DHT22;9458;50.942;5.074;2024-01-30T15:42:03;10.60;99.90
18658;DHT22;9458;50.942;5.074;2024-01-30T15:44:30;10.50;99.90
18658;DHT22;9458;50.942;5.074;2024-01-30T15:46:57;10.50;99.90
18658;DHT22;9458;50.942;5.074;2024-01-30T15:49:24;10.40;99.90
18658;DHT22;9458;50.942;5.074;2024-01-30T15:51:53;10.50;99.90
18658;DHT22;9458;50.942;5.074;2024-01-30T15:54:20;10.50;99.90
18658;DHT22;9458;50.942;5.074;2024-01-30T15:56:47;10.40;99.90